createdAt,value
2018-11-22T00:00:46.159Z,7.23
2018-11-22T00:03:41.133Z,5.80
2018-11-22T00:06:28.836Z,5.83
2018-11-22T00:09:22.894Z,6.27
2018-11-22T00:12:10.783Z,7.50
2018-11-22T00:15:05.601Z,5.77
2018-11-22T00:17:55.579Z,6.67
2018-11-22T00:20:48.785Z,7.17
2018-11-22T00:23:36.553Z,6.03
2018-11-22T00:26:31.406Z,5.87
2018-11-22T00:29:40.666Z,5.73
2018-11-22T00:32:35.681Z,7.10
2018-11-22T00:35:23.170Z,6.97
2018-11-22T00:38:19.566Z,7.27
2018-11-22T00:41:08.458Z,6.53
2018-11-22T00:44:02.091Z,7.77
2018-11-22T00:46:50.196Z,7.43
2018-11-22T00:49:45.789Z,7.83
2018-11-22T00:52:33.237Z,7.03
2018-11-22T00:55:46.555Z,7.93
2018-11-22T00:58:33.921Z,7.80
2018-11-22T01:01:28.919Z,7.23
2018-11-22T01:04:16.687Z,7.10
2018-11-22T01:07:11.744Z,7.57
2018-11-22T01:09:59.629Z,6.70
2018-11-22T01:12:55.161Z,6.97
2018-11-22T01:15:42.891Z,7.13
2018-11-22T01:18:38.363Z,8.97
2018-11-22T01:21:26.179Z,7.30
2018-11-22T01:24:20.587Z,7.90
2018-11-22T01:27:15.433Z,7.33
2018-11-22T01:30:10.363Z,7.27
2018-11-22T01:33:05.157Z,7.47
2018-11-22T01:35:59.958Z,6.63
2018-11-22T01:38:50.070Z,7.27
2018-11-22T01:41:42.569Z,6.57
2018-11-22T01:44:30.229Z,7.83
2018-11-22T01:47:25.145Z,8.00
2018-11-22T01:50:14.093Z,7.60
2018-11-22T01:53:08.383Z,7.10
2018-11-22T01:55:56.179Z,6.97
2018-11-22T01:58:51.105Z,7.40
2018-11-22T02:01:38.460Z,7.90
2018-11-22T02:04:33.093Z,6.23
2018-11-22T02:07:20.497Z,7.03
2018-11-22T02:10:15.711Z,8.33
2018-11-22T02:13:05.478Z,7.27
2018-11-22T02:15:58.070Z,7.50
2018-11-22T02:18:45.651Z,7.13
2018-11-22T02:21:41.075Z,9.20
2018-11-22T02:24:28.909Z,7.47
2018-11-22T02:27:24.321Z,7.60
2018-11-22T02:30:16.516Z,8.13
2018-11-22T02:33:18.196Z,7.67
2018-11-22T02:36:06.081Z,7.93
2018-11-22T02:39:00.785Z,8.30
2018-11-22T02:41:48.660Z,7.73
2018-11-22T02:44:43.194Z,7.90
2018-11-22T02:47:30.470Z,8.23
2018-11-22T02:50:28.293Z,7.17
2018-11-22T02:53:16.011Z,7.00
2018-11-22T02:56:10.020Z,7.77
2018-11-22T02:58:57.666Z,8.43
2018-11-22T03:01:54.415Z,8.10
2018-11-22T03:04:41.900Z,8.33
2018-11-22T03:07:36.900Z,8.03
2018-11-22T03:10:24.476Z,7.87
2018-11-22T03:13:20.255Z,8.57
2018-11-22T03:16:07.819Z,8.53
2018-11-22T03:19:02.896Z,8.50
2018-11-22T03:21:50.670Z,7.60
2018-11-22T03:24:47.767Z,8.93
2018-11-22T03:27:35.455Z,7.73
2018-11-22T03:30:30.870Z,8.47
2018-11-22T03:33:25.273Z,7.57
2018-11-22T03:36:26.517Z,8.13
2018-11-22T03:39:14.330Z,7.47
2018-11-22T03:42:09.108Z,7.50
2018-11-22T03:44:56.787Z,8.63
2018-11-22T03:47:52.283Z,9.57
2018-11-22T03:50:42.950Z,8.33
2018-11-22T03:53:38.345Z,7.97
2018-11-22T03:56:25.837Z,8.27
2018-11-22T03:59:20.200Z,8.77
2018-11-22T04:02:07.798Z,9.27
2018-11-22T04:05:02.359Z,10.47
2018-11-22T04:07:50.065Z,7.63
2018-11-22T04:10:46.874Z,7.33
2018-11-22T04:13:34.330Z,7.97
2018-11-22T04:16:29.571Z,7.90
2018-11-22T04:19:17.208Z,8.03
2018-11-22T04:22:12.361Z,7.70
2018-11-22T04:24:59.848Z,7.73
2018-11-22T04:27:54.637Z,7.70
2018-11-22T04:30:42.178Z,8.77
2018-11-22T04:33:43.647Z,7.60
2018-11-22T04:36:40.955Z,7.87
2018-11-22T04:39:35.474Z,8.57
2018-11-22T04:42:23.357Z,8.03
2018-11-22T04:45:18.177Z,8.63
2018-11-22T04:48:06.111Z,6.93
2018-11-22T12:17:55.162Z,5.10
2018-11-22T12:20:52.082Z,4.43
2018-11-22T12:23:49.437Z,4.93
2018-11-22T12:26:46.380Z,4.93
2018-11-22T12:29:43.738Z,4.40
2018-11-22T12:32:42.253Z,4.57
2018-11-22T12:35:44.910Z,4.10
2018-11-22T12:38:42.431Z,5.33
2018-11-22T12:41:39.051Z,5.17
2018-11-22T12:44:35.732Z,6.17
2018-11-22T12:47:32.237Z,4.40
2018-11-22T12:50:29.824Z,4.20
2018-11-22T12:53:26.123Z,4.30
2018-11-22T12:56:23.713Z,4.83
2018-11-22T12:59:20.629Z,5.23
2018-11-22T13:02:18.332Z,4.23
2018-11-22T13:05:13.641Z,5.07
2018-11-22T13:08:11.629Z,4.30
2018-11-22T13:11:08.151Z,4.40
2018-11-22T13:14:04.664Z,4.83
2018-11-22T13:17:01.007Z,5.30
2018-11-22T13:19:57.706Z,5.27
2018-11-22T13:22:54.572Z,4.70
2018-11-22T13:25:50.959Z,4.57
2018-11-22T13:28:47.279Z,4.90
2018-11-22T13:31:43.918Z,5.73
2018-11-22T13:34:40.307Z,4.33
2018-11-22T13:37:37.835Z,4.63
2018-11-22T13:40:34.489Z,4.47
2018-11-22T13:43:31.132Z,4.53
2018-11-22T13:46:28.047Z,4.80
2018-11-22T13:49:24.780Z,5.07
2018-11-22T13:52:22.352Z,5.20
2018-11-22T13:55:19.692Z,5.30
2018-11-22T13:58:16.184Z,4.23
2018-11-22T14:01:13.983Z,4.63
2018-11-22T14:04:10.745Z,6.53
2018-11-22T14:07:07.641Z,5.07
2018-11-22T14:10:04.050Z,6.47
2018-11-22T14:13:00.911Z,5.90
2018-11-22T14:15:58.390Z,7.10
2018-11-22T14:18:55.803Z,7.27
2018-11-22T14:21:52.313Z,5.93
2018-11-22T14:24:49.183Z,5.33
2018-11-22T14:27:46.601Z,5.07
2018-11-22T14:30:44.430Z,5.63
2018-11-22T14:33:40.910Z,4.97
2018-11-22T14:36:37.645Z,5.10
2018-11-22T14:39:35.183Z,5.03
2018-11-22T14:42:32.745Z,4.67
2018-11-22T14:45:31.368Z,4.83
2018-11-22T14:48:27.894Z,4.40
2018-11-22T14:51:29.623Z,5.50
2018-11-22T14:54:26.544Z,6.23
2018-11-22T14:57:23.096Z,4.30
2018-11-22T15:00:22.921Z,4.63
2018-11-22T15:03:19.438Z,5.13
2018-11-22T15:06:15.973Z,5.80
2018-11-22T15:09:12.907Z,5.77
2018-11-22T15:12:13.616Z,4.87
2018-11-22T15:15:11.169Z,4.70
2018-11-22T15:18:07.992Z,5.23
2018-11-22T15:21:05.241Z,5.67
2018-11-22T15:24:02.812Z,4.63
2018-11-22T15:26:59.351Z,4.33
2018-11-22T15:29:55.873Z,4.83
2018-11-22T15:32:52.658Z,4.37
2018-11-22T15:35:52.440Z,4.53
2018-11-22T15:38:49.423Z,4.53
2018-11-22T15:41:46.149Z,4.87
2018-11-22T15:44:43.657Z,4.10
2018-11-22T15:47:40.172Z,4.40
2018-11-22T15:50:37.542Z,4.43
2018-11-22T15:53:35.113Z,4.50
2018-11-22T15:56:32.551Z,4.07
2018-11-22T15:59:30.431Z,3.87
2018-11-22T16:02:26.944Z,4.70
2018-11-22T16:05:24.742Z,4.40
2018-11-22T16:08:21.374Z,4.50
2018-11-22T16:11:19.040Z,4.50
2018-11-22T16:14:15.733Z,4.13
2018-11-22T16:17:12.400Z,4.10
2018-11-22T16:20:09.623Z,4.50
2018-11-22T16:23:06.323Z,5.10
2018-11-22T16:26:03.082Z,3.80
2018-11-22T16:29:03.120Z,4.50
2018-11-22T16:32:01.206Z,4.67
2018-11-22T16:34:57.847Z,3.97
2018-11-22T16:37:54.363Z,4.83
2018-11-22T16:40:51.289Z,4.57
2018-11-22T16:43:47.590Z,4.30
2018-11-22T16:46:44.536Z,4.10
2018-11-22T16:49:41.054Z,3.90
2018-11-22T16:52:40.906Z,3.77
2018-11-22T16:55:38.052Z,3.70
2018-11-22T16:58:34.779Z,4.10
2018-11-22T17:01:31.299Z,4.33
2018-11-22T17:04:27.816Z,4.10
2018-11-22T17:07:24.369Z,4.03
2018-11-22T17:10:25.264Z,4.67
2018-11-22T17:13:21.558Z,4.30
2018-11-22T17:16:18.289Z,3.83
2018-11-22T17:19:15.027Z,4.37
2018-11-22T17:22:11.726Z,4.00
2018-11-22T17:25:08.051Z,4.60
2018-11-22T17:28:06.879Z,4.77
2018-11-22T17:31:03.584Z,3.90
2018-11-22T17:34:00.937Z,3.60
2018-11-22T17:36:57.872Z,3.60
2018-11-22T17:39:55.648Z,3.83
2018-11-22T17:42:52.176Z,3.77
2018-11-22T17:45:50.982Z,5.10
2018-11-22T17:48:47.491Z,3.80
2018-11-22T17:51:44.031Z,3.73
2018-11-22T17:54:40.325Z,3.47
2018-11-22T17:57:37.268Z,3.70
2018-11-22T18:00:37.758Z,3.50
2018-11-22T18:03:39.485Z,4.03
2018-11-22T18:06:36.847Z,3.67
2018-11-22T18:09:33.585Z,3.30
2018-11-22T18:12:30.092Z,3.57
2018-11-22T18:15:27.879Z,4.37
2018-11-22T18:18:24.582Z,4.10
2018-11-22T18:21:21.953Z,3.50
2018-11-22T18:24:19.504Z,4.00
2018-11-22T18:27:16.240Z,3.93
2018-11-22T18:30:13.157Z,5.60
2018-11-22T18:33:11.764Z,3.83
2018-11-22T18:36:08.192Z,4.00
2018-11-22T18:39:05.853Z,3.37
2018-11-22T18:42:03.667Z,3.93
2018-11-22T18:45:00.151Z,4.00
2018-11-22T18:47:56.660Z,4.53
2018-11-22T18:50:54.460Z,4.23
2018-11-22T18:53:50.964Z,3.83
2018-11-22T18:56:47.686Z,3.60
2018-11-22T18:59:43.986Z,4.27
2018-11-22T19:02:41.775Z,4.90
2018-11-22T19:05:38.286Z,4.73
2018-11-22T19:08:35.008Z,5.03
2018-11-22T19:11:32.369Z,5.03
2018-11-22T19:14:29.090Z,4.33
2018-11-22T19:17:25.814Z,4.20
2018-11-22T19:20:25.475Z,4.13
2018-11-22T19:23:22.834Z,4.80
2018-11-22T19:26:19.550Z,3.87
2018-11-22T19:29:16.281Z,4.10
2018-11-22T19:32:12.994Z,4.33
2018-11-22T19:35:10.570Z,4.10
2018-11-22T19:38:09.800Z,4.33
2018-11-22T19:41:08.000Z,4.93
2018-11-22T19:44:04.722Z,4.17
2018-11-22T19:47:01.222Z,4.93
2018-11-22T19:49:59.228Z,4.40
2018-11-22T19:52:56.568Z,4.67
2018-11-22T19:55:53.305Z,4.30
2018-11-22T19:58:49.827Z,4.57
2018-11-22T20:01:46.754Z,4.13
2018-11-22T20:04:43.068Z,4.80
2018-11-22T20:07:39.779Z,5.53
2018-11-22T20:10:41.738Z,4.47
2018-11-22T20:13:38.162Z,5.37
2018-11-22T20:16:34.782Z,4.43
2018-11-22T20:19:31.514Z,4.10
2018-11-22T20:22:29.076Z,4.23
2018-11-22T20:25:25.584Z,5.03
2018-11-22T20:28:21.999Z,4.70
2018-11-22T20:31:18.827Z,5.13
2018-11-22T20:34:15.390Z,4.47
2018-11-22T20:37:12.085Z,4.17
2018-11-22T20:40:08.628Z,5.23
2018-11-22T20:43:06.571Z,4.57
2018-11-22T20:46:03.926Z,4.80
2018-11-22T20:49:00.856Z,4.83
2018-11-22T20:51:57.174Z,5.07
2018-11-22T20:54:54.731Z,5.30
2018-11-22T20:57:54.190Z,4.77
2018-11-22T21:00:51.947Z,5.07
2018-11-22T21:03:49.731Z,4.53
2018-11-22T21:06:46.439Z,4.23
2018-11-22T21:09:42.773Z,4.90
2018-11-22T21:12:43.463Z,5.03
2018-11-22T21:15:41.232Z,5.00
2018-11-22T21:18:37.961Z,4.90
2018-11-22T21:21:34.469Z,4.40
2018-11-22T21:24:31.201Z,4.90
2018-11-22T21:27:27.708Z,5.00
2018-11-22T21:30:28.623Z,5.33
2018-11-22T21:33:26.408Z,4.30
2018-11-22T21:36:24.176Z,4.73
2018-11-22T21:39:22.769Z,4.40
2018-11-22T21:42:19.503Z,4.40
2018-11-22T21:45:17.057Z,4.10
2018-11-22T21:48:13.999Z,4.33
2018-11-22T21:51:10.539Z,4.17
2018-11-22T21:54:08.088Z,4.40
2018-11-22T21:57:04.807Z,4.60
2018-11-22T22:00:01.696Z,4.20
2018-11-22T22:03:00.133Z,4.47
2018-11-22T22:05:57.015Z,4.63
2018-11-22T22:08:55.316Z,4.63
2018-11-22T22:11:54.915Z,4.60
2018-11-22T22:14:51.225Z,4.97
2018-11-22T22:17:48.999Z,4.90
2018-11-22T22:20:46.347Z,4.70
2018-11-22T22:23:44.349Z,5.30
2018-11-22T22:26:41.695Z,5.43
2018-11-22T22:29:39.249Z,4.30
2018-11-22T22:32:35.765Z,4.33
2018-11-22T22:35:33.166Z,4.83
2018-11-22T22:38:29.664Z,4.87
2018-11-22T22:41:26.579Z,4.50
2018-11-22T22:44:22.901Z,4.80
2018-11-22T22:47:20.669Z,4.67
2018-11-22T22:50:18.226Z,4.73
2018-11-22T22:53:15.152Z,5.07
2018-11-22T22:56:11.466Z,4.70
2018-11-22T22:59:08.406Z,4.73
2018-11-22T23:02:05.688Z,4.93
2018-11-22T23:05:02.506Z,6.00
2018-11-22T23:07:59.013Z,4.93
2018-11-22T23:10:55.735Z,5.07
2018-11-22T23:13:52.482Z,5.20
2018-11-22T23:16:49.199Z,4.20
2018-11-22T23:19:45.700Z,4.40
2018-11-22T23:22:43.486Z,4.37
2018-11-22T23:25:39.995Z,4.97
2018-11-22T23:28:36.936Z,5.03
2018-11-22T23:31:33.678Z,4.90
2018-11-22T23:34:30.399Z,4.70
2018-11-22T23:37:27.750Z,4.63
2018-11-22T23:40:27.385Z,4.23
2018-11-22T23:43:23.921Z,4.70
2018-11-22T23:46:21.690Z,4.63
2018-11-22T23:49:18.420Z,4.37
2018-11-22T23:52:15.146Z,4.83
2018-11-22T23:55:13.538Z,4.27
2018-11-22T23:58:10.058Z,4.53
